sensor_id;sensor_type;location;lat;lon;timestamp;P1;durP1;ratioP1;P2;durP2;ratioP2
64966;SDS011;51710;38.732;-121.358;2022-09-20T00:01:05;1.52;;;1.05;;
64966;SDS011;51710;38.732;-121.358;2022-09-20T00:03:32;1.38;;;0.90;;
64966;SDS011;51710;38.732;-121.358;2022-09-20T00:06:01;4.43;;;0.90;;
64966;SDS011;51710;38.732;-121.358;2022-09-20T00:08:28;1.50;;;0.80;;
64966;SDS011;51710;38.732;-121.358;2022-09-20T00:10:59;2.17;;;1.00;;
64966;SDS011;51710;38.732;-121.358;2022-09-20T00:13:26;1.90;;;0.90;;
64966;SDS011;51710;38.732;-121.358;2022-09-20T00:15:53;1.48;;;0.77;;
64966;SDS011;51710;38.732;-121.358;2022-09-20T00:18:20;1.58;;;1.08;;
64966;SDS011;51710;38.732;-121.358;2022-09-20T00:20:47;2.20;;;0.90;;
64966;SDS011;51710;38.732;-121.358;2022-09-20T00:23:15;1.50;;;0.93;;
64966;SDS011;51710;38.732;-121.358;2022-09-20T00:25:42;2.03;;;1.00;;
64966;SDS011;51710;38.732;-121.358;2022-09-20T00:28:09;2.13;;;0.80;;
64966;SDS011;51710;38.732;-121.358;2022-09-20T00:30:35;2.47;;;1.20;;
64966;SDS011;51710;38.732;-121.358;2022-09-20T00:33:02;2.22;;;1.13;;
64966;SDS011;51710;38.732;-121.358;2022-09-20T00:35:28;1.13;;;0.90;;
64966;SDS011;51710;38.732;-121.358;2022-09-20T00:37:55;2.10;;;0.90;;
64966;SDS011;51710;38.732;-121.358;2022-09-20T00:40:23;1.17;;;0.90;;
64966;SDS011;51710;38.732;-121.358;2022-09-20T00:42:53;1.27;;;0.80;;
64966;SDS011;51710;38.732;-121.358;2022-09-20T00:45:21;1.77;;;0.80;;
64966;SDS011;51710;38.732;-121.358;2022-09-20T00:50:46;2.05;;;0.82;;
64966;SDS011;51710;38.732;-121.358;2022-09-20T00:53:28;3.00;;;1.20;;
64966;SDS011;51710;38.732;-121.358;2022-09-20T00:56:11;1.05;;;0.77;;
64966;SDS011;51710;38.732;-121.358;2022-09-20T00:58:44;2.42;;;0.90;;
64966;SDS011;51710;38.732;-121.358;2022-09-20T01:01:16;1.33;;;0.80;;
64966;SDS011;51710;38.732;-121.358;2022-09-20T01:03:43;1.15;;;0.70;;
64966;SDS011;51710;38.732;-121.358;2022-09-20T01:06:11;1.20;;;0.77;;
64966;SDS011;51710;38.732;-121.358;2022-09-20T01:08:40;1.83;;;1.30;;
64966;SDS011;51710;38.732;-121.358;2022-09-20T01:11:10;3.10;;;1.10;;
64966;SDS011;51710;38.732;-121.358;2022-09-20T01:13:37;1.20;;;1.10;;
64966;SDS011;51710;38.732;-121.358;2022-09-20T01:16:03;2.85;;;1.10;;
64966;SDS011;51710;38.732;-121.358;2022-09-20T01:18:31;1.92;;;1.10;;
64966;SDS011;51710;38.732;-121.358;2022-09-20T01:20:59;1.52;;;0.80;;
64966;SDS011;51710;38.732;-121.358;2022-09-20T01:23:34;1.98;;;1.00;;
64966;SDS011;51710;38.732;-121.358;2022-09-20T01:31:58;2.00;;;0.90;;
64966;SDS011;51710;38.732;-121.358;2022-09-20T01:34:36;1.08;;;0.90;;
64966;SDS011;51710;38.732;-121.358;2022-09-20T01:43:38;1.00;;;0.80;;
64966;SDS011;51710;38.732;-121.358;2022-09-20T01:46:17;1.38;;;1.00;;
64966;SDS011;51710;38.732;-121.358;2022-09-20T01:54:23;1.60;;;1.13;;
64966;SDS011;51710;38.732;-121.358;2022-09-20T02:06:07;2.10;;;0.90;;
64966;SDS011;51710;38.732;-121.358;2022-09-20T02:11:19;3.33;;;1.02;;
64966;SDS011;51710;38.732;-121.358;2022-09-20T02:16:47;2.42;;;1.13;;
64966;SDS011;51710;38.732;-121.358;2022-09-20T02:26:21;2.30;;;1.00;;
64966;SDS011;51710;38.732;-121.358;2022-09-20T02:35:00;0.98;;;0.77;;
64966;SDS011;51710;38.732;-121.358;2022-09-20T02:37:38;2.45;;;0.82;;
64966;SDS011;51710;38.732;-121.358;2022-09-20T02:51:40;2.08;;;1.00;;
64966;SDS011;51710;38.732;-121.358;2022-09-20T02:59:40;2.17;;;0.90;;
64966;SDS011;51710;38.732;-121.358;2022-09-20T03:21:39;1.77;;;0.60;;
64966;SDS011;51710;38.732;-121.358;2022-09-20T03:24:52;1.77;;;0.50;;
64966;SDS011;51710;38.732;-121.358;2022-09-20T03:27:30;2.17;;;0.52;;
64966;SDS011;51710;38.732;-121.358;2022-09-20T03:39:22;2.00;;;0.50;;
64966;SDS011;51710;38.732;-121.358;2022-09-20T03:42:21;0.52;;;0.52;;
64966;SDS011;51710;38.732;-121.358;2022-09-20T03:50:32;2.03;;;0.50;;
64966;SDS011;51710;38.732;-121.358;2022-09-20T03:59:05;0.95;;;0.40;;
64966;SDS011;51710;38.732;-121.358;2022-09-20T04:07:10;0.88;;;0.40;;
64966;SDS011;51710;38.732;-121.358;2022-09-20T04:12:19;1.50;;;0.60;;
64966;SDS011;51710;38.732;-121.358;2022-09-20T04:20:32;1.20;;;0.40;;
64966;SDS011;51710;38.732;-121.358;2022-09-20T04:26:19;0.85;;;0.52;;
64966;SDS011;51710;38.732;-121.358;2022-09-20T04:31:46;0.68;;;0.50;;
64966;SDS011;51710;38.732;-121.358;2022-09-20T04:34:24;1.00;;;0.60;;
64966;SDS011;51710;38.732;-121.358;2022-09-20T04:37:21;3.15;;;0.50;;
64966;SDS011;51710;38.732;-121.358;2022-09-20T05:02:36;1.40;;;0.50;;
64966;SDS011;51710;38.732;-121.358;2022-09-20T05:08:14;1.05;;;0.60;;
64966;SDS011;51710;38.732;-121.358;2022-09-20T05:22:25;3.20;;;0.98;;
64966;SDS011;51710;38.732;-121.358;2022-09-20T05:30:44;2.42;;;1.00;;
64966;SDS011;51710;38.732;-121.358;2022-09-20T05:36:25;3.55;;;1.30;;
64966;SDS011;51710;38.732;-121.358;2022-09-20T05:38:49;2.33;;;1.30;;
64966;SDS011;51710;38.732;-121.358;2022-09-20T05:49:35;2.72;;;1.10;;
64966;SDS011;51710;38.732;-121.358;2022-09-20T05:52:34;3.65;;;1.20;;
64966;SDS011;51710;38.732;-121.358;2022-09-20T06:06:32;2.28;;;0.98;;
64966;SDS011;51710;38.732;-121.358;2022-09-20T06:09:06;1.67;;;0.88;;
64966;SDS011;51710;38.732;-121.358;2022-09-20T06:17:47;2.67;;;0.90;;
64966;SDS011;51710;38.732;-121.358;2022-09-20T06:23:09;3.83;;;1.50;;
64966;SDS011;51710;38.732;-121.358;2022-09-20T06:25:47;2.25;;;1.15;;
64966;SDS011;51710;38.732;-121.358;2022-09-20T06:28:18;1.52;;;0.82;;
64966;SDS011;51710;38.732;-121.358;2022-09-20T06:30:47;3.67;;;1.30;;
64966;SDS011;51710;38.732;-121.358;2022-09-20T06:33:19;2.40;;;0.93;;
64966;SDS011;51710;38.732;-121.358;2022-09-20T06:36:09;1.65;;;0.85;;
64966;SDS011;51710;38.732;-121.358;2022-09-20T06:39:18;1.73;;;0.95;;
64966;SDS011;51710;38.732;-121.358;2022-09-20T06:42:15;3.00;;;0.98;;
64966;SDS011;51710;38.732;-121.358;2022-09-20T06:44:42;3.72;;;1.02;;
64966;SDS011;51710;38.732;-121.358;2022-09-20T06:47:14;2.10;;;1.02;;
64966;SDS011;51710;38.732;-121.358;2022-09-20T06:49:40;2.05;;;1.02;;
64966;SDS011;51710;38.732;-121.358;2022-09-20T06:52:09;1.92;;;1.40;;
64966;SDS011;51710;38.732;-121.358;2022-09-20T06:54:42;2.38;;;1.10;;
64966;SDS011;51710;38.732;-121.358;2022-09-20T06:57:11;2.42;;;1.10;;
64966;SDS011;51710;38.732;-121.358;2022-09-20T06:59:41;3.40;;;1.25;;
64966;SDS011;51710;38.732;-121.358;2022-09-20T07:02:07;4.03;;;1.50;;
64966;SDS011;51710;38.732;-121.358;2022-09-20T07:04:35;4.22;;;2.28;;
64966;SDS011;51710;38.732;-121.358;2022-09-20T07:07:02;3.13;;;1.90;;
64966;SDS011;51710;38.732;-121.358;2022-09-20T07:09:30;4.22;;;2.38;;
64966;SDS011;51710;38.732;-121.358;2022-09-20T07:11:56;4.18;;;2.45;;
64966;SDS011;51710;38.732;-121.358;2022-09-20T07:14:26;8.18;;;3.00;;
64966;SDS011;51710;38.732;-121.358;2022-09-20T07:16:52;5.20;;;3.05;;
64966;SDS011;51710;38.732;-121.358;2022-09-20T07:19:19;6.75;;;3.13;;
64966;SDS011;51710;38.732;-121.358;2022-09-20T07:21:47;3.75;;;2.42;;
64966;SDS011;51710;38.732;-121.358;2022-09-20T07:24:13;4.20;;;2.70;;
64966;SDS011;51710;38.732;-121.358;2022-09-20T07:26:52;6.15;;;3.55;;
64966;SDS011;51710;38.732;-121.358;2022-09-20T07:29:20;5.47;;;2.30;;
64966;SDS011;51710;38.732;-121.358;2022-09-20T07:31:47;3.60;;;2.25;;
64966;SDS011;51710;38.732;-121.358;2022-09-20T07:34:15;3.30;;;2.10;;
64966;SDS011;51710;38.732;-121.358;2022-09-20T07:36:48;5.15;;;2.45;;
64966;SDS011;51710;38.732;-121.358;2022-09-20T07:39:15;3.97;;;2.08;;
64966;SDS011;51710;38.732;-121.358;2022-09-20T07:41:42;3.72;;;2.13;;
64966;SDS011;51710;38.732;-121.358;2022-09-20T07:44:13;4.10;;;1.77;;
64966;SDS011;51710;38.732;-121.358;2022-09-20T07:46:50;2.75;;;1.58;;
64966;SDS011;51710;38.732;-121.358;2022-09-20T07:49:21;4.18;;;2.20;;
64966;SDS011;51710;38.732;-121.358;2022-09-20T07:51:49;4.30;;;2.03;;
64966;SDS011;51710;38.732;-121.358;2022-09-20T07:54:16;4.05;;;1.90;;
64966;SDS011;51710;38.732;-121.358;2022-09-20T07:56:43;5.82;;;2.05;;
64966;SDS011;51710;38.732;-121.358;2022-09-20T07:59:10;3.08;;;1.70;;
64966;SDS011;51710;38.732;-121.358;2022-09-20T08:01:38;3.47;;;1.65;;
64966;SDS011;51710;38.732;-121.358;2022-09-20T08:04:05;2.83;;;1.60;;
64966;SDS011;51710;38.732;-121.358;2022-09-20T08:06:34;3.33;;;1.67;;
64966;SDS011;51710;38.732;-121.358;2022-09-20T08:09:02;3.17;;;1.70;;
64966;SDS011;51710;38.732;-121.358;2022-09-20T08:11:29;4.30;;;1.90;;
64966;SDS011;51710;38.732;-121.358;2022-09-20T08:13:57;3.85;;;1.85;;
64966;SDS011;51710;38.732;-121.358;2022-09-20T08:16:25;4.15;;;2.10;;
64966;SDS011;51710;38.732;-121.358;2022-09-20T08:18:53;3.05;;;1.65;;
64966;SDS011;51710;38.732;-121.358;2022-09-20T08:21:22;5.05;;;1.77;;
64966;SDS011;51710;38.732;-121.358;2022-09-20T08:23:50;2.92;;;1.40;;
64966;SDS011;51710;38.732;-121.358;2022-09-20T08:26:18;5.82;;;1.67;;
64966;SDS011;51710;38.732;-121.358;2022-09-20T08:28:46;2.60;;;1.50;;
64966;SDS011;51710;38.732;-121.358;2022-09-20T08:31:17;4.70;;;1.58;;
64966;SDS011;51710;38.732;-121.358;2022-09-20T08:33:44;3.50;;;1.65;;
64966;SDS011;51710;38.732;-121.358;2022-09-20T08:36:13;3.00;;;1.83;;
64966;SDS011;51710;38.732;-121.358;2022-09-20T08:38:41;8.82;;;2.10;;
64966;SDS011;51710;38.732;-121.358;2022-09-20T08:41:28;3.35;;;1.90;;
64966;SDS011;51710;38.732;-121.358;2022-09-20T08:47:02;4.75;;;1.92;;
64966;SDS011;51710;38.732;-121.358;2022-09-20T08:49:30;3.47;;;1.85;;
64966;SDS011;51710;38.732;-121.358;2022-09-20T08:51:57;4.28;;;2.03;;
64966;SDS011;51710;38.732;-121.358;2022-09-20T08:54:26;3.13;;;2.10;;
64966;SDS011;51710;38.732;-121.358;2022-09-20T08:57:00;6.30;;;2.78;;
64966;SDS011;51710;38.732;-121.358;2022-09-20T08:59:35;2.75;;;1.58;;
64966;SDS011;51710;38.732;-121.358;2022-09-20T09:02:01;4.55;;;1.77;;
64966;SDS011;51710;38.732;-121.358;2022-09-20T09:04:30;3.30;;;1.83;;
64966;SDS011;51710;38.732;-121.358;2022-09-20T09:07:00;2.70;;;1.42;;
64966;SDS011;51710;38.732;-121.358;2022-09-20T09:09:28;3.97;;;1.30;;
64966;SDS011;51710;38.732;-121.358;2022-09-20T09:11:55;2.75;;;1.50;;
64966;SDS011;51710;38.732;-121.358;2022-09-20T09:14:30;2.78;;;1.30;;
64966;SDS011;51710;38.732;-121.358;2022-09-20T09:17:13;4.22;;;1.30;;
64966;SDS011;51710;38.732;-121.358;2022-09-20T09:19:43;2.17;;;1.27;;
64966;SDS011;51710;38.732;-121.358;2022-09-20T09:22:16;3.03;;;1.35;;
64966;SDS011;51710;38.732;-121.358;2022-09-20T09:24:44;3.10;;;1.58;;
64966;SDS011;51710;38.732;-121.358;2022-09-20T09:27:15;1.92;;;1.20;;
64966;SDS011;51710;38.732;-121.358;2022-09-20T09:29:53;3.67;;;1.15;;
64966;SDS011;51710;38.732;-121.358;2022-09-20T09:32:22;1.55;;;0.90;;
64966;SDS011;51710;38.732;-121.358;2022-09-20T09:34:54;3.28;;;1.15;;
64966;SDS011;51710;38.732;-121.358;2022-09-20T09:37:23;1.15;;;1.00;;
64966;SDS011;51710;38.732;-121.358;2022-09-20T09:42:57;3.47;;;1.10;;
64966;SDS011;51710;38.732;-121.358;2022-09-20T09:45:35;3.67;;;1.15;;
64966;SDS011;51710;38.732;-121.358;2022-09-20T09:48:18;1.52;;;0.60;;
64966;SDS011;51710;38.732;-121.358;2022-09-20T09:50:48;2.88;;;0.88;;
64966;SDS011;51710;38.732;-121.358;2022-09-20T09:53:18;2.13;;;0.80;;
64966;SDS011;51710;38.732;-121.358;2022-09-20T10:01:25;0.93;;;0.60;;
64966;SDS011;51710;38.732;-121.358;2022-09-20T10:05:10;1.63;;;0.70;;
64966;SDS011;51710;38.732;-121.358;2022-09-20T10:10:10;1.67;;;0.60;;
64966;SDS011;51710;38.732;-121.358;2022-09-20T10:15:40;1.00;;;0.80;;
64966;SDS011;51710;38.732;-121.358;2022-09-20T10:18:24;0.88;;;0.50;;
64966;SDS011;51710;38.732;-121.358;2022-09-20T10:35:24;0.50;;;0.45;;
64966;SDS011;51710;38.732;-121.358;2022-09-20T10:38:14;1.17;;;0.60;;
64966;SDS011;51710;38.732;-121.358;2022-09-20T10:44:11;1.17;;;0.50;;
64966;SDS011;51710;38.732;-121.358;2022-09-20T10:49:41;0.70;;;0.50;;
64966;SDS011;51710;38.732;-121.358;2022-09-20T10:52:35;1.65;;;0.50;;
64966;SDS011;51710;38.732;-121.358;2022-09-20T10:58:08;1.48;;;0.65;;
64966;SDS011;51710;38.732;-121.358;2022-09-20T11:09:01;0.73;;;0.47;;
64966;SDS011;51710;38.732;-121.358;2022-09-20T11:11:38;0.88;;;0.60;;
64966;SDS011;51710;38.732;-121.358;2022-09-20T11:22:27;0.85;;;0.60;;
64966;SDS011;51710;38.732;-121.358;2022-09-20T11:25:17;1.30;;;0.70;;
64966;SDS011;51710;38.732;-121.358;2022-09-20T11:28:02;1.65;;;0.63;;
64966;SDS011;51710;38.732;-121.358;2022-09-20T11:30:50;2.08;;;0.65;;
64966;SDS011;51710;38.732;-121.358;2022-09-20T11:35:59;0.93;;;0.60;;
64966;SDS011;51710;38.732;-121.358;2022-09-20T11:40:56;1.98;;;0.75;;
64966;SDS011;51710;38.732;-121.358;2022-09-20T11:43:29;1.88;;;0.82;;
64966;SDS011;51710;38.732;-121.358;2022-09-20T11:46:05;1.27;;;0.70;;
64966;SDS011;51710;38.732;-121.358;2022-09-20T11:48:46;1.27;;;0.60;;
64966;SDS011;51710;38.732;-121.358;2022-09-20T11:57:19;1.98;;;1.00;;
64966;SDS011;51710;38.732;-121.358;2022-09-20T11:59:57;1.58;;;0.77;;
64966;SDS011;51710;38.732;-121.358;2022-09-20T12:02:36;3.25;;;1.00;;
64966;SDS011;51710;38.732;-121.358;2022-09-20T12:05:24;2.42;;;0.80;;
64966;SDS011;51710;38.732;-121.358;2022-09-20T12:07:55;2.25;;;0.63;;
64966;SDS011;51710;38.732;-121.358;2022-09-20T12:10:25;2.85;;;0.70;;
64966;SDS011;51710;38.732;-121.358;2022-09-20T12:12:58;1.17;;;0.70;;
64966;SDS011;51710;38.732;-121.358;2022-09-20T12:28:41;3.42;;;1.00;;
64966;SDS011;51710;38.732;-121.358;2022-09-20T12:33:57;2.42;;;0.90;;
64966;SDS011;51710;38.732;-121.358;2022-09-20T12:36:30;2.85;;;1.48;;
64966;SDS011;51710;38.732;-121.358;2022-09-20T12:44:24;1.23;;;0.90;;
64966;SDS011;51710;38.732;-121.358;2022-09-20T12:58:02;1.63;;;0.80;;
64966;SDS011;51710;38.732;-121.358;2022-09-20T13:11:32;1.83;;;1.20;;
64966;SDS011;51710;38.732;-121.358;2022-09-20T13:25:01;1.00;;;0.80;;
64966;SDS011;51710;38.732;-121.358;2022-09-20T13:28:32;1.20;;;1.00;;
64966;SDS011;51710;38.732;-121.358;2022-09-20T13:30:34;4.00;;;1.88;;
64966;SDS011;51710;38.732;-121.358;2022-09-20T13:33:21;2.55;;;1.65;;
64966;SDS011;51710;38.732;-121.358;2022-09-20T13:35:52;2.40;;;1.70;;
64966;SDS011;51710;38.732;-121.358;2022-09-20T13:38:22;4.40;;;1.70;;
64966;SDS011;51710;38.732;-121.358;2022-09-20T13:40:57;3.67;;;1.92;;
64966;SDS011;51710;38.732;-121.358;2022-09-20T13:43:38;2.75;;;1.85;;
64966;SDS011;51710;38.732;-121.358;2022-09-20T13:48:36;2.42;;;1.75;;
64966;SDS011;51710;38.732;-121.358;2022-09-20T13:51:03;3.00;;;1.80;;
64966;SDS011;51710;38.732;-121.358;2022-09-20T13:53:41;1.63;;;1.40;;
64966;SDS011;51710;38.732;-121.358;2022-09-20T13:56:25;2.20;;;1.60;;
64966;SDS011;51710;38.732;-121.358;2022-09-20T13:58:54;2.65;;;1.30;;
64966;SDS011;51710;38.732;-121.358;2022-09-20T14:01:28;3.22;;;1.10;;
64966;SDS011;51710;38.732;-121.358;2022-09-20T14:04:00;2.33;;;1.10;;
64966;SDS011;51710;38.732;-121.358;2022-09-20T14:06:49;2.25;;;1.20;;
64966;SDS011;51710;38.732;-121.358;2022-09-20T14:09:19;3.72;;;1.20;;
64966;SDS011;51710;38.732;-121.358;2022-09-20T14:11:51;1.30;;;1.02;;
64966;SDS011;51710;38.732;-121.358;2022-09-20T14:14:19;2.33;;;1.00;;
64966;SDS011;51710;38.732;-121.358;2022-09-20T14:16:47;2.53;;;1.20;;
64966;SDS011;51710;38.732;-121.358;2022-09-20T14:19:16;4.30;;;1.85;;
64966;SDS011;51710;38.732;-121.358;2022-09-20T14:21:46;1.98;;;1.15;;
64966;SDS011;51710;38.732;-121.358;2022-09-20T14:26:40;1.55;;;1.02;;
64966;SDS011;51710;38.732;-121.358;2022-09-20T14:34:45;1.55;;;0.88;;
64966;SDS011;51710;38.732;-121.358;2022-09-20T14:37:34;2.80;;;1.05;;
64966;SDS011;51710;38.732;-121.358;2022-09-20T14:40:04;2.70;;;1.20;;
64966;SDS011;51710;38.732;-121.358;2022-09-20T14:42:48;1.05;;;0.90;;
64966;SDS011;51710;38.732;-121.358;2022-09-20T14:45:21;2.65;;;1.10;;
64966;SDS011;51710;38.732;-121.358;2022-09-20T14:51:17;2.45;;;1.10;;
64966;SDS011;51710;38.732;-121.358;2022-09-20T14:56:14;1.63;;;1.13;;
64966;SDS011;51710;38.732;-121.358;2022-09-20T15:01:39;2.40;;;1.50;;
64966;SDS011;51710;38.732;-121.358;2022-09-20T15:04:19;2.13;;;1.20;;
64966;SDS011;51710;38.732;-121.358;2022-09-20T15:06:48;2.20;;;1.30;;
64966;SDS011;51710;38.732;-121.358;2022-09-20T15:09:15;3.30;;;1.55;;
64966;SDS011;51710;38.732;-121.358;2022-09-20T15:11:45;3.13;;;2.08;;
64966;SDS011;51710;38.732;-121.358;2022-09-20T15:14:11;3.42;;;2.10;;
64966;SDS011;51710;38.732;-121.358;2022-09-20T15:16:37;3.50;;;2.25;;
64966;SDS011;51710;38.732;-121.358;2022-09-20T15:19:03;3.65;;;2.20;;
64966;SDS011;51710;38.732;-121.358;2022-09-20T15:21:32;4.47;;;2.08;;
64966;SDS011;51710;38.732;-121.358;2022-09-20T15:23:58;3.47;;;2.25;;
64966;SDS011;51710;38.732;-121.358;2022-09-20T15:26:24;3.80;;;2.55;;
64966;SDS011;51710;38.732;-121.358;2022-09-20T15:28:51;4.10;;;3.03;;
64966;SDS011;51710;38.732;-121.358;2022-09-20T15:31:17;4.60;;;3.28;;
64966;SDS011;51710;38.732;-121.358;2022-09-20T15:33:44;8.50;;;3.38;;
64966;SDS011;51710;38.732;-121.358;2022-09-20T15:36:10;5.30;;;3.72;;
64966;SDS011;51710;38.732;-121.358;2022-09-20T15:38:36;5.63;;;3.50;;
64966;SDS011;51710;38.732;-121.358;2022-09-20T15:41:03;5.75;;;4.15;;
64966;SDS011;51710;38.732;-121.358;2022-09-20T15:43:30;7.03;;;4.60;;
64966;SDS011;51710;38.732;-121.358;2022-09-20T15:45:57;10.70;;;3.75;;
64966;SDS011;51710;38.732;-121.358;2022-09-20T15:48:44;5.45;;;4.13;;
64966;SDS011;51710;38.732;-121.358;2022-09-20T15:51:10;5.63;;;3.83;;
64966;SDS011;51710;38.732;-121.358;2022-09-20T15:53:42;5.78;;;3.55;;
64966;SDS011;51710;38.732;-121.358;2022-09-20T15:56:14;3.72;;;2.30;;
64966;SDS011;51710;38.732;-121.358;2022-09-20T16:01:15;4.55;;;2.20;;
64966;SDS011;51710;38.732;-121.358;2022-09-20T16:03:43;6.03;;;2.72;;
64966;SDS011;51710;38.732;-121.358;2022-09-20T16:06:11;3.80;;;2.50;;
64966;SDS011;51710;38.732;-121.358;2022-09-20T16:08:38;5.65;;;2.78;;
64966;SDS011;51710;38.732;-121.358;2022-09-20T16:11:07;3.58;;;2.50;;
64966;SDS011;51710;38.732;-121.358;2022-09-20T16:13:36;5.22;;;2.80;;
64966;SDS011;51710;38.732;-121.358;2022-09-20T16:16:03;4.97;;;2.13;;
64966;SDS011;51710;38.732;-121.358;2022-09-20T16:18:31;7.13;;;2.63;;
64966;SDS011;51710;38.732;-121.358;2022-09-20T16:21:17;3.90;;;2.40;;
64966;SDS011;51710;38.732;-121.358;2022-09-20T16:23:47;6.70;;;2.90;;
64966;SDS011;51710;38.732;-121.358;2022-09-20T16:26:16;6.35;;;2.58;;
64966;SDS011;51710;38.732;-121.358;2022-09-20T16:28:44;4.60;;;2.42;;
64966;SDS011;51710;38.732;-121.358;2022-09-20T16:33:59;4.38;;;1.77;;
64966;SDS011;51710;38.732;-121.358;2022-09-20T16:36:32;4.20;;;2.10;;
64966;SDS011;51710;38.732;-121.358;2022-09-20T16:38:58;4.90;;;2.30;;
64966;SDS011;51710;38.732;-121.358;2022-09-20T16:41:25;4.15;;;2.00;;
64966;SDS011;51710;38.732;-121.358;2022-09-20T16:43:53;6.93;;;2.00;;
64966;SDS011;51710;38.732;-121.358;2022-09-20T16:46:20;6.00;;;1.80;;
64966;SDS011;51710;38.732;-121.358;2022-09-20T16:48:49;4.18;;;1.85;;
64966;SDS011;51710;38.732;-121.358;2022-09-20T16:51:18;2.92;;;2.00;;
64966;SDS011;51710;38.732;-121.358;2022-09-20T16:53:46;5.18;;;1.70;;
64966;SDS011;51710;38.732;-121.358;2022-09-20T16:56:23;5.80;;;2.42;;
64966;SDS011;51710;38.732;-121.358;2022-09-20T16:58:51;4.65;;;1.88;;
64966;SDS011;51710;38.732;-121.358;2022-09-20T17:01:18;3.47;;;1.80;;
64966;SDS011;51710;38.732;-121.358;2022-09-20T17:03:45;2.97;;;1.70;;
64966;SDS011;51710;38.732;-121.358;2022-09-20T17:06:12;3.25;;;1.60;;
64966;SDS011;51710;38.732;-121.358;2022-09-20T17:08:40;4.55;;;1.98;;
64966;SDS011;51710;38.732;-121.358;2022-09-20T17:11:08;3.80;;;2.03;;
64966;SDS011;51710;38.732;-121.358;2022-09-20T17:13:38;3.65;;;2.30;;
64966;SDS011;51710;38.732;-121.358;2022-09-20T17:16:08;6.03;;;2.85;;
64966;SDS011;51710;38.732;-121.358;2022-09-20T17:18:36;4.20;;;2.75;;
64966;SDS011;51710;38.732;-121.358;2022-09-20T17:21:10;6.15;;;3.10;;
64966;SDS011;51710;38.732;-121.358;2022-09-20T17:23:44;3.65;;;2.45;;
64966;SDS011;51710;38.732;-121.358;2022-09-20T17:28:48;4.07;;;2.65;;
64966;SDS011;51710;38.732;-121.358;2022-09-20T17:31:20;4.07;;;2.20;;
64966;SDS011;51710;38.732;-121.358;2022-09-20T17:33:49;6.30;;;2.50;;
64966;SDS011;51710;38.732;-121.358;2022-09-20T17:36:17;5.63;;;3.40;;
64966;SDS011;51710;38.732;-121.358;2022-09-20T17:38:46;3.88;;;2.38;;
64966;SDS011;51710;38.732;-121.358;2022-09-20T17:41:17;5.28;;;2.50;;
64966;SDS011;51710;38.732;-121.358;2022-09-20T17:43:44;6.47;;;2.72;;
64966;SDS011;51710;38.732;-121.358;2022-09-20T17:46:13;4.80;;;2.97;;
64966;SDS011;51710;38.732;-121.358;2022-09-20T17:48:42;4.90;;;2.63;;
64966;SDS011;51710;38.732;-121.358;2022-09-20T17:51:14;4.38;;;2.50;;
64966;SDS011;51710;38.732;-121.358;2022-09-20T17:53:42;2.60;;;1.98;;
64966;SDS011;51710;38.732;-121.358;2022-09-20T17:56:10;4.18;;;2.30;;
64966;SDS011;51710;38.732;-121.358;2022-09-20T17:58:37;4.47;;;2.60;;
64966;SDS011;51710;38.732;-121.358;2022-09-20T18:01:06;4.40;;;2.35;;
64966;SDS011;51710;38.732;-121.358;2022-09-20T18:03:36;4.28;;;2.50;;
64966;SDS011;51710;38.732;-121.358;2022-09-20T18:06:10;3.78;;;2.20;;
64966;SDS011;51710;38.732;-121.358;2022-09-20T18:08:39;4.57;;;2.25;;
64966;SDS011;51710;38.732;-121.358;2022-09-20T18:11:06;5.20;;;2.08;;
64966;SDS011;51710;38.732;-121.358;2022-09-20T18:13:33;2.90;;;1.50;;
64966;SDS011;51710;38.732;-121.358;2022-09-20T18:16:00;2.65;;;1.60;;
64966;SDS011;51710;38.732;-121.358;2022-09-20T18:18:27;4.85;;;2.10;;
64966;SDS011;51710;38.732;-121.358;2022-09-20T18:20:53;2.15;;;1.45;;
64966;SDS011;51710;38.732;-121.358;2022-09-20T18:23:19;3.50;;;1.60;;
64966;SDS011;51710;38.732;-121.358;2022-09-20T18:25:46;2.10;;;1.48;;
64966;SDS011;51710;38.732;-121.358;2022-09-20T18:28:30;2.85;;;1.88;;
64966;SDS011;51710;38.732;-121.358;2022-09-20T18:31:03;3.25;;;1.52;;
64966;SDS011;51710;38.732;-121.358;2022-09-20T18:33:30;2.42;;;1.40;;
64966;SDS011;51710;38.732;-121.358;2022-09-20T18:36:01;1.70;;;1.13;;
64966;SDS011;51710;38.732;-121.358;2022-09-20T18:38:29;3.47;;;1.70;;
64966;SDS011;51710;38.732;-121.358;2022-09-20T18:40:57;2.08;;;1.20;;
64966;SDS011;51710;38.732;-121.358;2022-09-20T18:43:26;3.58;;;1.20;;
64966;SDS011;51710;38.732;-121.358;2022-09-20T18:45:54;2.00;;;1.30;;
64966;SDS011;51710;38.732;-121.358;2022-09-20T18:48:22;1.58;;;1.10;;
64966;SDS011;51710;38.732;-121.358;2022-09-20T18:51:00;1.50;;;0.93;;
64966;SDS011;51710;38.732;-121.358;2022-09-20T18:53:32;2.15;;;0.98;;
64966;SDS011;51710;38.732;-121.358;2022-09-20T18:56:07;2.05;;;1.00;;
64966;SDS011;51710;38.732;-121.358;2022-09-20T18:58:42;1.58;;;0.80;;
64966;SDS011;51710;38.732;-121.358;2022-09-20T19:15:34;3.42;;;0.82;;
64966;SDS011;51710;38.732;-121.358;2022-09-20T19:20:53;1.17;;;0.80;;
64966;SDS011;51710;38.732;-121.358;2022-09-20T19:26:32;1.73;;;0.90;;
64966;SDS011;51710;38.732;-121.358;2022-09-20T19:29:03;2.13;;;1.00;;
64966;SDS011;51710;38.732;-121.358;2022-09-20T19:31:48;2.25;;;0.95;;
64966;SDS011;51710;38.732;-121.358;2022-09-20T19:34:20;2.13;;;0.68;;
64966;SDS011;51710;38.732;-121.358;2022-09-20T19:42:53;1.98;;;0.65;;
64966;SDS011;51710;38.732;-121.358;2022-09-20T19:45:34;1.83;;;0.75;;
64966;SDS011;51710;38.732;-121.358;2022-09-20T19:48:05;0.82;;;0.77;;
64966;SDS011;51710;38.732;-121.358;2022-09-20T19:50:50;3.10;;;0.70;;
64966;SDS011;51710;38.732;-121.358;2022-09-20T19:53:18;2.70;;;0.60;;
64966;SDS011;51710;38.732;-121.358;2022-09-20T19:55:52;3.15;;;1.00;;
64966;SDS011;51710;38.732;-121.358;2022-09-20T19:58:29;1.13;;;0.65;;
64966;SDS011;51710;38.732;-121.358;2022-09-20T20:00:55;2.35;;;0.90;;
64966;SDS011;51710;38.732;-121.358;2022-09-20T20:03:22;1.67;;;0.90;;
64966;SDS011;51710;38.732;-121.358;2022-09-20T20:05:54;1.92;;;0.73;;
64966;SDS011;51710;38.732;-121.358;2022-09-20T20:13:44;1.33;;;0.60;;
64966;SDS011;51710;38.732;-121.358;2022-09-20T20:19:03;1.05;;;0.55;;
64966;SDS011;51710;38.732;-121.358;2022-09-20T20:21:54;1.02;;;0.55;;
64966;SDS011;51710;38.732;-121.358;2022-09-20T20:24:31;3.15;;;0.77;;
64966;SDS011;51710;38.732;-121.358;2022-09-20T20:27:04;1.73;;;0.77;;
64966;SDS011;51710;38.732;-121.358;2022-09-20T20:29:31;1.17;;;0.70;;
64966;SDS011;51710;38.732;-121.358;2022-09-20T20:31:57;1.77;;;0.93;;
64966;SDS011;51710;38.732;-121.358;2022-09-20T20:34:23;2.00;;;0.70;;
64966;SDS011;51710;38.732;-121.358;2022-09-20T20:36:51;1.27;;;0.75;;
64966;SDS011;51710;38.732;-121.358;2022-09-20T20:39:28;1.25;;;0.70;;
64966;SDS011;51710;38.732;-121.358;2022-09-20T20:41:59;1.00;;;0.70;;
64966;SDS011;51710;38.732;-121.358;2022-09-20T20:44:30;1.02;;;0.60;;
64966;SDS011;51710;38.732;-121.358;2022-09-20T20:47:00;0.50;;;0.50;;
64966;SDS011;51710;38.732;-121.358;2022-09-20T20:49:27;1.48;;;0.80;;
64966;SDS011;51710;38.732;-121.358;2022-09-20T20:51:53;1.80;;;0.98;;
64966;SDS011;51710;38.732;-121.358;2022-09-20T20:54:20;1.02;;;0.60;;
64966;SDS011;51710;38.732;-121.358;2022-09-20T20:56:47;1.50;;;0.60;;
64966;SDS011;51710;38.732;-121.358;2022-09-20T20:59:13;3.95;;;1.05;;
64966;SDS011;51710;38.732;-121.358;2022-09-20T21:01:42;0.57;;;0.50;;